Home > Products > Valid Products > TAF

000
FTUS45 KBYZ 180535
TAFBIL
TAF
KBIL 180535Z 1806/1906 21009KT P6SM BKN120
     FM181500 27012KT P6SM VCSH BKN060
     FM181900 29016KT P6SM VCSH BKN080
     FM182200 30018KT P6SM BKN120=



000
FTUS45 KBYZ 180535
TAFLVM
TAF
KLVM 180535Z 1806/1906 23018G28KT P6SM BKN120
     FM181200 25018G28KT P6SM -SHRA BKN040
      TEMPO 1814/1817 4SM -SHRA BKN030
     FM181700 29019KT P6SM VCSH BKN080
     FM182000 25027G38KT P6SM BKN100=



000
FTUS45 KBYZ 180535
TAFSHR
TAF
KSHR 180535Z 1806/1906 22004KT P6SM SKC
     FM181700 30012KT P6SM BKN120
     FM182100 31012KT P6SM VCSH BKN080=



000
FTUS45 KBYZ 180535
TAFMLS
TAF
KMLS 180535Z 1806/1906 15015KT P6SM OVC100
     FM181700 29012KT P6SM BKN120
     FM182100 31012KT P6SM VCSH BKN080=



000
FTUS45 KBYZ 172332
TAFLVM
TAF
KLVM 172332Z 1800/1824 23018G28KT P6SM BKN120
     FM181200 25018G28KT P6SM VCSH BKN060=



000
FTUS45 KBYZ 172332
TAFBIL
TAF
KBIL 172332Z 1800/1824 21009KT P6SM BKN120
     FM181500 27012KT P6SM BKN120
     FM181900 29016KT P6SM VCSH BKN080=



000
FTUS45 KBYZ 172332
TAFMLS
TAF
KMLS 172332Z 1800/1824 18006KT P6SM BKN200
     FM180400 14008KT P6SM BKN120
     FM181700 29012KT P6SM BKN120
     FM182100 31012KT P6SM VCSH BKN080=



000
FTUS45 KBYZ 172332
TAFSHR
TAF
KSHR 172332Z 1800/1824 15006KT P6SM SCT200
     FM180400 VRB04KT P6SM BKN200
     FM181700 30012KT P6SM BKN120
     FM182100 31012KT P6SM VCSH BKN080=



000
FTUS45 KBYZ 171720
TAFBIL
TAF
KBIL 171720Z 1718/1818 21009KT P6SM FEW080 BKN200
     FM181500 27011KT P6SM VCSH BKN080=



000
FTUS45 KBYZ 171720
TAFSHR
TAF
KSHR 171720Z 1718/1818 17006KT P6SM FEW090 BKN200=



000
FTUS45 KBYZ 171720
TAFLVM
TAF
KLVM 171720Z 1718/1818 23018G28KT P6SM FEW100 BKN150
     FM181200 25016KT P6SM VCSH BKN060=



000
FTUS45 KBYZ 171720
TAFMLS
TAF
KMLS 171720Z 1718/1818 14009KT P6SM BKN200=



000
FTUS45 KBYZ 171455 AAA
TAFSHR
TAF AMD
KSHR 171455Z 1715/1812 VRB04KT P6SM BKN004
      TEMPO 1715/1717 SCT004 BKN150
     FM171700 17008KT P6SM BKN100=



000
FTUS45 KBYZ 171326 AAA
TAFLVM
TAF AMD
KLVM 171326Z 1713/1812 00000KT P6SM BKN004
      TEMPO 1713/1715 SCT004 BKN150
     FM171500 26009KT P6SM FEW004 BKN150
     FM171600 23018G28KT P6SM BKN100
     FM172100 23025G35KT P6SM BKN120=



000
FTUS45 KBYZ 171131
TAFLVM
TAF
KLVM 171131Z 1712/1812 00000KT P6SM OVC008
     FM171600 23018G28KT P6SM BKN100
     FM172100 23025G35KT P6SM BKN120=



000
FTUS45 KBYZ 171131
TAFBIL
TAF
KBIL 171131Z 1712/1812 00000KT P6SM SCT090 SCT120
     FM171400 23008KT P6SM BKN080
     FM171800 23012KT P6SM SCT080 BKN120
     FM172300 23018KT P6SM SCT100 BKN150=



000
FTUS45 KBYZ 171131
TAFMLS
TAF
KMLS 171131Z 1712/1812 06006KT P6SM OVC050
     FM172000 21010KT P6SM SCT080 BKN120
     FM180300 09012KT P6SM BKN150=



000
FTUS45 KBYZ 171131
TAFSHR
TAF
KSHR 171131Z 1712/1812 27004KT P6SM BKN004
     FM171500 25005KT P6SM SCT040 BKN080
     FM171800 17008KT P6SM BKN100=



000
FTUS45 KBYZ 170901 AAA
TAFSHR
TAF AMD
KSHR 170901Z 1709/1806 33005KT P6SM OVC002
     FM171200 14006KT P6SM BKN080
     FM171800 17008KT P6SM BKN100=



000
FTUS45 KBYZ 170537
TAFLVM
TAF
KLVM 170537Z 1706/1806 09010KT P6SM BKN009 OVC110
     FM171000 20008KT P6SM BKN100
     FM171600 23018G28KT P6SM BKN100=



000
FTUS45 KBYZ 170537
TAFSHR
TAF
KSHR 170537Z 1706/1806 19005KT P6SM VCSH OVC030
     FM170900 18005KT P6SM SCT040 BKN060
     FM171200 14006KT P6SM BKN080
     FM171800 17008KT P6SM BKN100=



000
FTUS45 KBYZ 170537
TAFMLS
TAF
KMLS 170537Z 1706/1806 06008KT P6SM VCSH OVC040
     FM171200 14012KT P6SM BKN080
     FM172300 14008KT P6SM SCT080 BKN120=



000
FTUS45 KBYZ 170537
TAFBIL
TAF
KBIL 170537Z 1706/1806 06006KT P6SM VCSH OVC070
     FM171000 22009KT P6SM BKN070
     FM171300 23008KT P6SM BKN080
     FM171800 23012KT P6SM SCT080 BKN120=



000
FTUS45 KBYZ 170439 AAA
TAFSHR
TAF AMD
KSHR 170439Z 1705/1724 20008KT P6SM VCSH SCT040 BKN060
      TEMPO 1705/1707 28008KT P6SM -SHRA BKN020
     FM170800 18005KT P6SM SCT040 BKN060
     FM171200 14006KT P6SM BKN080=



000
FTUS45 KBYZ 162340
TAFLVM
TAF
KLVM 162340Z 1700/1724 25014G24KT P6SM VCSH SCT040 BKN080
     FM170400 25012KT P6SM SCT015 BKN080
     FM170600 23007KT P6SM BKN080
     FM171600 23018G28KT P6SM BKN100=



000
FTUS45 KBYZ 162340
TAFBIL
TAF
KBIL 162340Z 1700/1724 05008KT P6SM VCSH FEW014 SCT030 BKN080
      TEMPO 1700/1704 30014G24KT -SHRA BKN025
     FM170800 32006KT P6SM SCT020 OVC070
     FM171300 23008KT P6SM BKN080=



000
FTUS45 KBYZ 162340
TAFMLS
TAF
KMLS 162340Z 1700/1724 05008KT P6SM VCSH SCT020 BKN050
     FM170800 10006KT P6SM VCSH SCT040 BKN080
     FM171200 14012KT P6SM BKN080=



000
FTUS45 KBYZ 162340
TAFSHR
TAF
KSHR 162340Z 1700/1724 20008KT P6SM VCSH SCT040 BKN060
     FM170400 18005KT P6SM SCT040 BKN060
     FM171200 14006KT P6SM BKN080=



000
FTUS45 KBYZ 162314 AAE
TAFBIL
TAF AMD
KBIL 162314Z 1623/1718 05008KT P6SM VCSH FEW014 SCT030 BKN080
      TEMPO 1623/1701 30014G24KT 5SM -SHRA BKN025
     FM170400 12005KT 5SM -RASN BKN007 OVC015
     FM170800 18005KT P6SM SCT020 OVC070
     FM171300 21008KT P6SM SCT100=



000
FTUS45 KBYZ 162151 AAD
TAFBIL
TAF AMD
KBIL 162151Z 1622/1718 07008KT P6SM VCSH FEW014 SCT070 BKN090
     FM170400 12005KT 5SM -RASN BKN007 OVC015
     FM170800 18005KT P6SM SCT020 OVC070
     FM171300 21008KT P6SM SCT100=



000
FTUS45 KBYZ 162004 AAB
TAFMLS
TAF AMD
KMLS 162004Z 1620/1718 03006KT P6SM VCSH SCT020 OVC050
     FM162100 07008KT P6SM VCSH BKN080
     FM170800 10006KT P6SM VCSH SCT020 BKN050
     FM171400 15012KT P6SM VCSH SCT030 BKN050=



000
FTUS45 KBYZ 162003 AAC
TAFBIL
TAF AMD
KBIL 162003Z 1620/1718 14003KT P6SM VCSH FEW014 SCT070
     FM162100 06011KT P6SM VCSH SCT007 BKN025
     FM170400 12005KT 5SM -RASN BKN007 OVC015
     FM170800 18005KT P6SM SCT020 OVC070
     FM171300 21008KT P6SM SCT100=



000
FTUS45 KBYZ 161944 AAB
TAFBIL
TAF AMD
KBIL 161944Z 1620/1718 VRB05KT 6SM -RASN FEW011 SCT025 BKN035
      TEMPO 1620/1621 5SM -RA BR BKN025
     FM162100 06011KT P6SM VCSH SCT007 BKN025
     FM170400 12005KT 5SM -RASN BKN007 OVC015
     FM170800 18005KT P6SM SCT020 OVC070
     FM171300 21008KT P6SM SCT100=



000
FTUS45 KBYZ 161932 AAA
TAFMLS
TAF AMD
KMLS 161932Z 1620/1718 02007KT 3SM -SN FEW015 BKN025 OVC035
     FM162100 07008KT P6SM VCSH BKN080
     FM170800 10006KT P6SM VCSH SCT020 BKN050
     FM171400 15012KT P6SM VCSH SCT030 BKN050=



000
FTUS45 KBYZ 161922 AAA
TAFBIL
TAF AMD
KBIL 161922Z 1619/1718 06011KT 4SM -RA SCT007 BKN015
      TEMPO 1619/1621 2SM RA BR BKN007
     FM162100 06011KT P6SM VCSH SCT007 BKN025
     FM170400 12005KT 5SM -RASN BKN007 OVC015
     FM170800 18005KT P6SM SCT020 OVC070
     FM171300 21008KT P6SM SCT100=



000
FTUS45 KBYZ 161727
TAFBIL
TAF
KBIL 161727Z 1618/1718 06011KT P6SM VCSH SCT007 BKN080
      TEMPO 1618/1620 BKN007
     FM170400 12005KT 5SM -RASN BKN007 OVC015
     FM170800 18005KT P6SM SCT020 OVC070
     FM171300 21008KT P6SM SCT100=



000
FTUS45 KBYZ 161727
TAFLVM
TAF
KLVM 161727Z 1618/1718 25017G24KT P6SM VCSH FEW040 BKN070
     FM170200 25011KT 6SM -RASN OVC050
     FM170400 23007KT 4SM -SN BR SCT015 BKN025
     FM170700 23007KT P6SM VCSH SCT015 BKN035
     FM171200 23013KT P6SM SCT050=



000
FTUS45 KBYZ 161727
TAFMLS
TAF
KMLS 161727Z 1618/1718 02007KT P6SM VCSH BKN100
     FM162200 07008KT P6SM BKN080
     FM170800 10006KT P6SM VCSH SCT020 BKN050
     FM171400 15012KT P6SM VCSH SCT030 BKN050=



000
FTUS45 KBYZ 161727
TAFSHR
TAF
KSHR 161727Z 1618/1718 33016KT P6SM VCSH FEW015 BKN035 OVC050
     FM170000 01005KT 6SM -SHRASN BR OVC035
     FM170400 17005KT P6SM VCSH SCT015 BKN025
     FM170700 VRB04KT P6SM SCT030 BKN050
     FM171200 25005KT P6SM BKN080=



000
FTUS45 KBYZ 161619 AAB
TAFBIL
TAF AMD
KBIL 161619Z 1616/1712 06012KT P6SM VCSH FEW007 SCT060
      TEMPO 1616/1618 BKN007 OVC080
     FM161800 32012KT P6SM VCSH FEW015 SCT060
     FM162100 06007KT 5SM -RASN OVC040
     FM170800 24007KT P6SM OVC070=



000
FTUS45 KBYZ 161602 AAA
TAFBIL
TAF AMD
KBIL 161602Z 1616/1712 06012KT P6SM VCSH FEW007 SCT060
     FM161800 32012KT P6SM VCSH FEW015 SCT060
     FM162100 06007KT 5SM -RASN OVC040
     FM170800 24007KT P6SM OVC070=



000
FTUS45 KBYZ 161534 AAA
TAFSHR
TAF AMD
KSHR 161534Z 1616/1712 30016KT P6SM VCSH FEW011 SCT050 OVC100
      TEMPO 1616/1618 4SM -SHRASN FEW011 BKN025 OVC050
     FM162200 35007KT P6SM -SHRASN OVC050
     FM170700 28006KT P6SM OVC090=



000
FTUS45 KBYZ 161500 AAA
TAFLVM
TAF AMD
KLVM 161500Z 1615/1712 22016KT P6SM VCSH BKN050 OVC090
     FM170000 25010KT P6SM -SN OVC045
     FM170900 24015KT P6SM OVC080=



000
FTUS45 KBYZ 161126
TAFMLS
TAF
KMLS 161126Z 1612/1712 33011KT P6SM FEW120 BKN200
     FM161600 36008KT P6SM OVC090
     FM162000 07007KT P6SM VCSH OVC070=



000
FTUS45 KBYZ 161126
TAFLVM
TAF
KLVM 161126Z 1612/1712 25016KT P6SM VCSH BKN050 OVC090
     FM170000 25010KT P6SM -SN OVC045
     FM170900 24015KT P6SM OVC080=



000
FTUS45 KBYZ 161126
TAFBIL
TAF
KBIL 161126Z 1612/1712 29021G25KT P6SM -SHRA OVC070
     FM161400 31012KT P6SM VCSH SCT030 OVC050
     FM162100 06007KT 5SM -RASN OVC040
     FM170800 24007KT P6SM OVC070=



000
FTUS45 KBYZ 161126
TAFSHR
TAF
KSHR 161126Z 1612/1712 30016KT P6SM VCSH FEW015 SCT050 OVC100
      TEMPO 1612/1615 4SM -SHRASN BKN025 OVC050
     FM162200 35007KT P6SM -SHRASN OVC050
     FM170700 28006KT P6SM OVC090=



000
FTUS45 KBYZ 160535
TAFLVM
TAF
KLVM 160535Z 1606/1706 25016KT P6SM VCSH OVC040
     FM170300 25011KT P6SM -SN OVC035=



000
FTUS45 KBYZ 160535
TAFMLS
TAF
KMLS 160535Z 1606/1706 29016KT P6SM BKN110
     FM161200 34012KT P6SM OVC060
     FM161800 09007KT P6SM OVC050=



000
FTUS45 KBYZ 160535
TAFSHR
TAF
KSHR 160535Z 1606/1706 30023G27KT P6SM VCSH SCT030 OVC060
      TEMPO 1606/1609 4SM -SHRASN BKN025 OVC050
     FM161200 31018KT P6SM VCSH SCT030 OVC070
     FM162200 35007KT P6SM VCSH OVC050=



000
FTUS45 KBYZ 160535
TAFBIL
TAF
KBIL 160535Z 1606/1706 30017KT P6SM VCSH SCT060 OVC090
     FM161000 32011KT P6SM VCSH BKN035 OVC070
     FM161400 31008KT P6SM VCSH SCT030 OVC050
     FM162100 06007KT 5SM -RASN OVC040=



000
FTUS45 KBYZ 160329 AAA
TAFLVM
TAF AMD
KLVM 160329Z 1603/1624 24017KT P6SM VCSH FEW030 BKN050
     FM160900 25017G25KT P6SM VCSH BKN050 OVC100=



000
FTUS45 KBYZ 152340
TAFBIL
TAF
KBIL 152340Z 1600/1624 30022G29KT P6SM VCSH BKN040 BKN070
      TEMPO 1600/1601 6SM -SHRA OVC040
     FM160900 33015KT 4SM -SHSN OVC025
     FM161500 31011KT P6SM VCSH SCT030 OVC050=



000
FTUS45 KBYZ 152340
TAFLVM
TAF
KLVM 152340Z 1600/1624 28011G17KT P6SM VCSH FEW020 BKN050
      TEMPO 1600/1601 3SM -SHRASN SCT005 BKN020
     FM160900 25017G25KT P6SM VCSH BKN050 OVC100=



000
FTUS45 KBYZ 152340
TAFSHR
TAF
KSHR 152340Z 1600/1624 31016G24KT P6SM VCSH OVC100
     FM160100 32022G27KT 6SM -SHRA BKN050 OVC090
     FM161200 31018KT P6SM OVC050=



000
FTUS45 KBYZ 152340
TAFMLS
TAF
KMLS 152340Z 1600/1624 33017G24KT P6SM VCSH SCT090 OVC150
     FM161100 36013KT P6SM VCSH OVC060
     FM161400 36010KT P6SM VCSH OVC030=



000
FTUS45 KBYZ 152250 AAB
TAFLVM
TAF AMD
KLVM 152250Z 1523/1618 28011G21KT P6SM VCSH FEW060 BKN100 OVC200
      TEMPO 1523/1601 2SM -SN BKN005
     FM160900 25017G25KT P6SM VCSH BKN050 OVC100=



000
FTUS45 KBYZ 152059 AAA
TAFLVM
TAF AMD
KLVM 152059Z 1521/1618 28017G25KT P6SM BKN100
      TEMPO 1521/1522 4SM -RA OVC020
     FM152200 25024G34KT P6SM VCSH FEW060 BKN100 OVC200
     FM160900 25017G25KT P6SM VCSH BKN050 OVC100=



000
FTUS45 KBYZ 152008 AAA
TAFMLS
TAF AMD
KMLS 152008Z 1520/1618 30017G27KT P6SM VCSH SCT090 OVC150
     FM161100 36013KT P6SM VCSH OVC060
     FM161400 36010KT P6SM VCSH OVC030=



000
FTUS45 KBYZ 151720
TAFLVM
TAF
KLVM 151720Z 1518/1618 25020G32KT P6SM BKN100
     FM152100 25024G34KT P6SM FEW060 BKN100 OVC200
     FM160900 25017G25KT P6SM VCSH BKN050 OVC100=



000
FTUS45 KBYZ 151720
TAFBIL
TAF
KBIL 151720Z 1518/1618 24017KT P6SM SCT090 OVC120
     FM151900 26017G25KT P6SM SCT100 BKN200
     FM160000 30022G29KT P6SM VCSH BKN070 OVC120
     FM161100 32014KT P6SM VCSH OVC060=



000
FTUS45 KBYZ 151720
TAFSHR
TAF
KSHR 151720Z 1518/1618 27011KT P6SM BKN100
     FM152100 29016G24KT P6SM BKN100 OVC200
     FM160400 33022G27KT P6SM -SHRA BKN050 OVC150
     FM161200 31018KT P6SM OVC050=



000
FTUS45 KBYZ 151720
TAFMLS
TAF
KMLS 151720Z 1518/1618 26012KT P6SM FEW120 BKN250
     FM160100 33017G27KT P6SM VCSH SCT090 OVC150
     FM161100 36013KT P6SM VCSH OVC060=



000
FTUS45 KBYZ 151123
TAFBIL
TAF
KBIL 151123Z 1512/1612 24018KT P6SM SCT110 OVC150
     FM151900 26017G25KT P6SM SCT100 BKN200
     FM160000 30022G29KT P6SM VCSH BKN070 OVC120=



000
FTUS45 KBYZ 151123
TAFMLS
TAF
KMLS 151123Z 1512/1612 16011KT P6SM FEW120 BKN250
     FM151630 28017G26KT P6SM FEW100 BKN250
     FM160100 33017G27KT P6SM VCSH SCT090 OVC150=



000
FTUS45 KBYZ 151123
TAFLVM
TAF
KLVM 151123Z 1512/1612 25023G32KT P6SM BKN100
     FM151700 25024G34KT P6SM FEW060 BKN100 OVC200
     FM152300 29023G32KT P6SM VCSH BKN050 OVC100=



000
FTUS45 KBYZ 151123
TAFSHR
TAF
KSHR 151123Z 1512/1612 VRB05KT P6SM BKN200
     FM151900 29016G24KT P6SM FEW120 BKN200
     FM160200 33022G27KT P6SM -SHRA BKN050 OVC150=



    US Dept of Commerce
    National Oceanic and Atmospheric Administration
    National Weather Service
    1325 East West Highway
    Silver Spring, MD 20910
    Page Author: NWS Internet Services Team
Disclaimer
Information Quality
Credits
Glossary
Privacy Policy
Freedom of Information Act (FOIA)
About Us
Career Opportunities